Time;durP1;ratioP1;P1;durP2;ratioP2;P2;SDS_P1;SDS_P2;PMS_P1;PMS_P2;Temp;Humidity;BMP_temperature;BMP_pressure;BME280_temperature;BME280_humidity;BME280_pressure;Samples;Min_cycle;Max_cycle;Signal;HPM_P1;HPM_P2
2022/09/07 00:01:17;;;;;;;14.02;6.18;;;19.00;99.90;;;;;;5056770;28;20142;-73
2022/09/07 00:03:42;;;;;;;15.00;6.78;;;19.00;99.90;;;;;;5056243;28;20053;-73
2022/09/07 00:06:10;;;;;;;8.95;5.60;;;19.00;99.90;;;;;;5056916;28;20045;-72
2022/09/07 00:08:36;;;;;;;11.77;5.45;;;19.00;99.90;;;;;;5056550;28;20059;-73
2022/09/07 00:11:05;;;;;;;8.63;6.10;;;19.00;99.90;;;;;;5056849;28;20089;-73
2022/09/07 00:13:34;;;;;;;7.68;5.88;;;18.90;99.90;;;;;;5056309;28;20504;-73
2022/09/07 00:16:08;;;;;;;9.23;5.75;;;18.90;99.90;;;;;;5056834;28;20437;-72
2022/09/07 00:18:34;;;;;;;8.40;5.97;;;18.90;99.90;;;;;;5056452;28;20334;-72
2022/09/07 00:21:02;;;;;;;14.13;6.43;;;18.90;99.90;;;;;;5039214;28;20075;-72
2022/09/07 00:23:30;;;;;;;10.98;6.47;;;18.90;99.90;;;;;;5056554;28;20044;-73
2022/09/07 00:26:00;;;;;;;10.23;6.35;;;18.80;99.90;;;;;;5056554;28;20041;-73
2022/09/07 00:28:26;;;;;;;12.98;6.25;;;18.80;99.90;;;;;;5056269;28;20044;-72
2022/09/07 00:30:51;;;;;;;15.73;6.10;;;18.80;99.90;;;;;;5056133;28;20051;-72
2022/09/07 00:33:17;;;;;;;12.93;7.82;;;18.70;99.90;;;;;;5055689;28;20075;-72
2022/09/07 00:35:42;;;;;;;10.50;7.00;;;18.80;99.90;;;;;;5056201;28;20076;-73
2022/09/07 00:38:08;;;;;;;11.98;6.97;;;18.70;99.90;;;;;;5055922;28;20045;-72
2022/09/07 00:40:34;;;;;;;13.43;7.18;;;18.70;99.90;;;;;;5056394;28;20111;-73
2022/09/07 00:43:00;;;;;;;12.13;7.60;;;18.70;99.90;;;;;;5056513;28;20121;-73
2022/09/07 00:45:26;;;;;;;12.23;8.02;;;18.70;99.90;;;;;;5056057;28;20120;-72
2022/09/07 00:48:03;;;;;;;12.02;7.07;;;18.70;99.90;;;;;;5055559;28;20460;-72
2022/09/07 00:50:54;;;;;;;11.68;7.05;;;18.70;99.90;;;;;;5055732;28;20041;-73
2022/09/07 00:53:29;;;;;;;12.50;8.48;;;18.80;99.90;;;;;;5048367;28;20385;-72
2022/09/07 00:55:56;;;;;;;12.32;7.32;;;18.60;99.90;;;;;;5055683;28;20045;-73
2022/09/07 00:58:23;;;;;;;10.10;7.63;;;18.60;99.90;;;;;;5055915;28;20060;-72
2022/09/07 01:00:49;;;;;;;9.90;7.70;;;18.50;99.90;;;;;;5055545;28;20369;-72
2022/09/07 01:03:21;;;;;;;12.73;7.70;;;18.40;99.90;;;;;;5055449;28;20138;-72
2022/09/07 01:05:56;;;;;;;14.52;8.27;;;18.40;99.90;;;;;;5055488;28;20056;-72
2022/09/07 01:08:23;;;;;;;12.55;6.80;;;18.30;99.90;;;;;;5055483;28;20123;-73
2022/09/07 01:10:49;;;;;;;11.85;7.47;;;18.30;99.90;;;;;;5055536;28;20172;-72
2022/09/07 01:13:15;;;;;;;13.48;8.32;;;18.30;99.90;;;;;;5055423;28;20206;-73
2022/09/07 01:16:09;;;;;;;9.95;8.07;;;18.40;99.90;;;;;;5054879;28;20469;-72
2022/09/07 01:19:07;;;;;;;16.98;10.10;;;18.30;99.90;;;;;;5055414;28;20049;-73
2022/09/07 01:22:01;;;;;;;16.63;9.20;;;18.30;99.90;;;;;;5055411;28;20112;-72
2022/09/07 01:24:40;;;;;;;17.42;9.55;;;18.30;99.90;;;;;;5055222;28;20048;-73
2022/09/07 01:27:24;;;;;;;19.67;11.63;;;18.20;99.90;;;;;;5055322;28;20059;-72
2022/09/07 01:30:03;;;;;;;23.58;11.43;;;18.20;99.90;;;;;;5055204;28;20051;-73
2022/09/07 01:32:59;;;;;;;18.02;12.15;;;18.10;99.90;;;;;;5054280;28;20534;-74
2022/09/07 01:35:51;;;;;;;15.77;12.77;;;18.00;99.90;;;;;;5054338;28;20080;-72
2022/09/07 01:38:44;;;;;;;24.00;12.18;;;17.90;99.90;;;;;;5043625;28;20132;-72
2022/09/07 01:41:22;;;;;;;14.20;11.82;;;17.90;99.90;;;;;;5055365;28;20396;-71
2022/09/07 01:44:12;;;;;;;19.33;13.38;;;17.90;99.90;;;;;;5054648;28;20049;-72
2022/09/07 01:46:58;;;;;;;18.73;13.88;;;17.90;99.90;;;;;;5055141;28;20456;-73
2022/09/07 01:50:01;;;;;;;14.88;13.02;;;17.90;99.90;;;;;;5054975;28;20088;-72
2022/09/07 01:52:41;;;;;;;19.35;14.57;;;17.90;99.90;;;;;;4993248;28;20050;-72
2022/09/07 01:55:26;;;;;;;17.67;14.18;;;17.60;99.90;;;;;;4993235;28;20042;-72
2022/09/07 01:57:58;;;;;;;21.33;15.35;;;17.70;99.90;;;;;;5035263;28;20079;-72
2022/09/07 02:00:24;;;;;;;33.97;16.58;;;17.70;99.90;;;;;;5055161;28;20106;-71
2022/09/07 02:03:02;;;;;;;24.77;17.35;;;17.70;99.90;;;;;;5054980;28;20443;-71
2022/09/07 02:05:33;;;;;;;19.83;15.85;;;17.60;99.90;;;;;;5055070;28;20037;-72
2022/09/07 02:08:13;;;;;;;18.50;15.68;;;17.60;99.90;;;;;;5054850;28;20136;-71
2022/09/07 02:10:44;;;;;;;19.80;16.70;;;17.50;99.90;;;;;;5054911;28;20345;-71
2022/09/07 02:13:30;;;;;;;18.60;15.88;;;17.40;99.90;;;;;;5054545;28;20037;-71
2022/09/07 02:16:07;;;;;;;19.85;14.10;;;17.50;99.90;;;;;;5055313;28;20044;-72
2022/09/07 02:18:40;;;;;;;16.63;14.70;;;17.50;99.90;;;;;;5054343;28;20457;-71
2022/09/07 02:21:09;;;;;;;15.13;10.27;;;17.40;99.90;;;;;;5054851;28;20049;-72
2022/09/07 02:23:42;;;;;;;14.20;10.73;;;17.40;99.90;;;;;;5054627;28;20048;-72
2022/09/07 02:26:16;;;;;;;13.93;11.23;;;17.40;99.90;;;;;;5054787;28;20123;-72
2022/09/07 02:28:42;;;;;;;18.02;11.85;;;17.30;99.90;;;;;;5054084;28;20087;-73
2022/09/07 02:31:08;;;;;;;18.08;11.75;;;17.30;99.90;;;;;;5037179;28;20072;-71
2022/09/07 02:33:34;;;;;;;11.85;9.23;;;17.20;99.90;;;;;;5054676;28;20045;-72
2022/09/07 02:36:01;;;;;;;12.32;9.63;;;17.20;99.90;;;;;;5036757;28;20045;-71
2022/09/07 02:38:26;;;;;;;10.98;8.35;;;17.10;99.90;;;;;;5054586;28;20049;-74
2022/09/07 02:40:58;;;;;;;11.90;8.93;;;17.10;99.90;;;;;;5037233;28;20460;-71
2022/09/07 02:43:24;;;;;;;10.70;7.80;;;17.10;99.90;;;;;;5036209;28;20049;-73
2022/09/07 02:46:04;;;;;;;10.13;8.48;;;17.10;99.90;;;;;;5054290;28;20397;-73
2022/09/07 02:48:57;;;;;;;11.20;8.95;;;17.00;99.90;;;;;;5054306;28;20068;-71
2022/09/07 02:51:49;;;;;;;11.60;7.55;;;17.00;99.90;;;;;;5054441;28;20083;-70
2022/09/07 02:54:36;;;;;;;11.68;8.63;;;17.00;99.90;;;;;;5055052;28;20368;-69
2022/09/07 02:57:26;;;;;;;13.15;8.98;;;17.00;99.90;;;;;;5057753;28;20056;-70
2022/09/07 03:00:10;;;;;;;11.73;8.85;;;17.10;99.90;;;;;;5057297;28;20057;-70
2022/09/07 03:03:08;;;;;;;14.02;9.23;;;17.00;99.90;;;;;;5038272;28;20364;-70
2022/09/07 03:06:00;;;;;;;10.70;8.85;;;17.10;99.90;;;;;;5038256;28;20120;-70
2022/09/07 03:08:42;;;;;;;9.80;8.43;;;17.00;99.90;;;;;;5038165;28;20404;-70
2022/09/07 03:11:07;;;;;;;10.65;8.43;;;17.10;99.90;;;;;;5037599;28;20124;-72
2022/09/07 03:13:33;;;;;;;10.07;8.80;;;17.10;99.90;;;;;;5037710;28;20410;-70
2022/09/07 03:15:59;;;;;;;12.98;9.50;;;17.10;99.90;;;;;;5048701;28;20071;-70
2022/09/07 03:18:26;;;;;;;13.50;9.35;;;17.10;99.90;;;;;;5057683;28;20445;-70
2022/09/07 03:20:52;;;;;;;14.32;9.23;;;17.00;99.90;;;;;;5057054;28;20445;-71
2022/09/07 03:23:17;;;;;;;12.30;9.30;;;17.00;99.90;;;;;;5057412;28;20070;-70
2022/09/07 03:25:43;;;;;;;11.98;10.10;;;17.00;99.90;;;;;;5057407;28;20446;-71
2022/09/07 03:28:09;;;;;;;10.77;9.23;;;17.00;99.90;;;;;;5057534;28;20041;-70
2022/09/07 03:30:35;;;;;;;13.05;10.20;;;17.00;99.90;;;;;;5057051;28;20075;-70
2022/09/07 03:33:00;;;;;;;16.02;10.55;;;17.10;99.90;;;;;;5057345;28;20376;-71
2022/09/07 03:35:26;;;;;;;11.95;9.35;;;17.00;99.90;;;;;;5039694;28;20388;-70
2022/09/07 03:37:51;;;;;;;10.85;9.23;;;17.00;99.90;;;;;;5056840;28;20106;-70
2022/09/07 03:40:17;;;;;;;12.32;10.50;;;16.90;99.90;;;;;;5057495;28;20425;-71
2022/09/07 03:42:48;;;;;;;11.85;10.23;;;16.90;99.90;;;;;;5005827;28;20053;-70
2022/09/07 03:45:13;;;;;;;14.68;10.60;;;16.90;99.90;;;;;;5056946;28;20045;-70
2022/09/07 03:47:39;;;;;;;14.32;10.30;;;16.90;99.90;;;;;;5056827;28;20441;-71
2022/09/07 03:50:06;;;;;;;11.73;9.90;;;16.90;99.90;;;;;;5056821;28;20098;-69
2022/09/07 03:52:33;;;;;;;10.95;9.70;;;16.90;99.90;;;;;;5056928;28;20323;-70
2022/09/07 03:54:58;;;;;;;14.18;11.57;;;16.90;99.90;;;;;;5039279;28;20460;-69
2022/09/07 03:57:24;;;;;;;13.70;11.52;;;16.80;99.90;;;;;;5039103;28;20072;-69
2022/09/07 03:59:49;;;;;;;15.35;13.27;;;16.80;99.90;;;;;;5056942;28;20036;-71
2022/09/07 04:02:15;;;;;;;16.67;13.55;;;16.80;99.90;;;;;;5039154;28;20043;-70
2022/09/07 04:04:42;;;;;;;17.83;14.38;;;16.70;99.90;;;;;;5056390;28;20044;-70
2022/09/07 04:07:07;;;;;;;18.98;15.50;;;16.70;99.90;;;;;;5055026;28;20491;-70
2022/09/07 04:09:33;;;;;;;17.38;15.02;;;16.70;99.90;;;;;;5056126;28;20032;-70
2022/09/07 04:11:58;;;;;;;17.75;15.25;;;16.70;99.90;;;;;;5056562;28;20045;-70
2022/09/07 04:14:24;;;;;;;20.30;17.92;;;16.70;99.90;;;;;;5056406;28;20059;-72
2022/09/07 04:16:50;;;;;;;22.13;18.92;;;16.60;99.90;;;;;;5056246;28;20067;-70
2022/09/07 04:19:16;;;;;;;22.85;18.88;;;16.70;99.90;;;;;;5056298;28;20080;-71
2022/09/07 04:21:43;;;;;;;23.15;18.30;;;16.60;99.90;;;;;;5056204;28;20052;-70
2022/09/07 04:24:09;;;;;;;26.75;20.35;;;16.60;99.90;;;;;;5056287;28;20049;-69
2022/09/07 04:26:35;;;;;;;21.65;17.63;;;16.60;99.90;;;;;;5055554;28;20094;-69
2022/09/07 04:29:02;;;;;;;20.02;17.85;;;16.70;99.90;;;;;;5056637;28;20098;-71
2022/09/07 04:31:28;;;;;;;26.95;21.45;;;16.70;99.90;;;;;;5056325;28;20124;-70
2022/09/07 04:33:53;;;;;;;22.25;19.10;;;16.60;99.90;;;;;;5055902;28;20488;-70
2022/09/07 04:36:19;;;;;;;22.05;18.15;;;16.60;99.90;;;;;;5055845;28;20052;-71
2022/09/07 04:38:46;;;;;;;26.65;20.80;;;16.70;99.90;;;;;;5056176;28;20060;-69
2022/09/07 04:41:14;;;;;;;21.52;18.95;;;16.60;99.90;;;;;;5055637;28;20037;-70
2022/09/07 04:43:42;;;;;;;26.55;19.92;;;16.50;99.90;;;;;;5055727;28;20419;-71
2022/09/07 04:46:25;;;;;;;24.95;20.90;;;16.60;99.90;;;;;;5055724;28;20083;-71
2022/09/07 04:48:57;;;;;;;19.95;17.92;;;16.60;99.90;;;;;;5055769;28;20037;-70
2022/09/07 04:51:25;;;;;;;25.20;21.17;;;16.50;99.90;;;;;;5055621;28;20045;-70
2022/09/07 04:53:53;;;;;;;30.50;24.17;;;16.50;99.90;;;;;;5055749;28;20102;-71
2022/09/07 04:56:20;;;;;;;24.95;20.00;;;16.50;99.90;;;;;;5055466;28;20067;-71
2022/09/07 04:58:46;;;;;;;25.10;19.73;;;16.40;99.90;;;;;;5055491;28;20454;-71
2022/09/07 05:01:14;;;;;;;24.02;21.35;;;16.60;99.90;;;;;;5055986;28;20052;-71
2022/09/07 05:03:40;;;;;;;25.30;19.05;;;16.60;99.90;;;;;;5055435;28;20051;-71
2022/09/07 05:06:06;;;;;;;28.17;20.98;;;16.50;99.90;;;;;;5055579;28;20045;-70
2022/09/07 05:08:47;;;;;;;25.00;21.85;;;16.50;99.90;;;;;;5055687;28;20041;-69
2022/09/07 05:11:14;;;;;;;26.27;21.73;;;16.60;99.90;;;;;;5055002;28;20357;-71
2022/09/07 05:13:41;;;;;;;23.55;21.05;;;16.50;99.90;;;;;;5055223;28;20124;-68
2022/09/07 05:16:12;;;;;;;24.02;21.45;;;16.60;99.90;;;;;;5055184;28;20059;-69
2022/09/07 05:18:38;;;;;;;22.00;18.38;;;16.60;99.90;;;;;;5054323;28;20341;-72
2022/09/07 05:21:14;;;;;;;24.45;21.23;;;16.60;99.90;;;;;;5055221;28;20117;-69
2022/09/07 05:23:41;;;;;;;32.88;23.60;;;16.60;99.90;;;;;;5037561;28;20075;-70
2022/09/07 05:26:07;;;;;;;30.52;23.20;;;16.60;99.90;;;;;;5054493;28;20033;-70
2022/09/07 05:28:34;;;;;;;30.63;24.13;;;16.60;99.90;;;;;;5055510;28;20053;-69
2022/09/07 05:31:12;;;;;;;26.58;22.88;;;16.60;99.90;;;;;;5055103;28;20095;-71
2022/09/07 05:33:38;;;;;;;24.95;21.38;;;16.60;99.90;;;;;;5054921;28;20098;-70
2022/09/07 05:36:05;;;;;;;26.67;23.30;;;16.60;99.90;;;;;;5054958;28;20408;-70
2022/09/07 05:38:34;;;;;;;32.22;26.65;;;16.60;99.90;;;;;;5054878;28;20052;-71
2022/09/07 05:41:13;;;;;;;35.63;27.83;;;16.70;99.90;;;;;;5054982;28;20053;-71
2022/09/07 05:43:39;;;;;;;38.10;30.27;;;16.70;99.90;;;;;;5054941;28;20048;-71
2022/09/07 05:46:05;;;;;;;35.15;30.83;;;16.70;99.90;;;;;;5054820;28;20468;-72
2022/09/07 05:48:31;;;;;;;31.90;28.02;;;16.70;99.90;;;;;;5055036;28;20120;-70
2022/09/07 05:50:56;;;;;;;34.80;29.20;;;16.60;99.90;;;;;;5054718;28;20352;-72
2022/09/07 05:53:22;;;;;;;30.58;27.30;;;16.70;99.90;;;;;;5055403;28;20138;-71
2022/09/07 05:55:50;;;;;;;45.50;29.27;;;16.70;99.90;;;;;;5037015;28;20118;-71
2022/09/07 05:58:17;;;;;;;35.97;28.20;;;16.70;99.90;;;;;;5054484;28;20106;-71
2022/09/07 06:00:46;;;;;;;31.75;28.17;;;16.70;99.90;;;;;;5054623;28;20059;-69
2022/09/07 06:03:11;;;;;;;29.02;25.85;;;16.70;99.90;;;;;;5054313;28;20059;-70
2022/09/07 06:05:37;;;;;;;33.13;26.77;;;16.70;99.90;;;;;;5054830;28;20128;-70
2022/09/07 06:08:03;;;;;;;31.52;27.98;;;16.70;99.90;;;;;;5054986;28;20048;-70
2022/09/07 06:10:33;;;;;;;28.55;25.05;;;16.70;99.90;;;;;;5054647;28;20041;-70
2022/09/07 06:12:59;;;;;;;32.55;29.02;;;16.70;99.90;;;;;;5054562;28;20130;-69
2022/09/07 06:15:24;;;;;;;28.80;25.00;;;16.70;99.90;;;;;;5054367;28;20446;-70
2022/09/07 06:17:50;;;;;;;26.98;23.80;;;16.80;99.90;;;;;;5054808;28;20045;-70
2022/09/07 06:20:16;;;;;;;28.75;24.50;;;16.80;99.90;;;;;;5037254;28;20045;-70
2022/09/07 06:22:41;;;;;;;31.77;25.10;;;16.90;99.90;;;;;;5054315;28;20127;-70
2022/09/07 06:25:07;;;;;;;29.10;26.02;;;16.90;99.90;;;;;;5054742;28;20145;-70
2022/09/07 06:27:33;;;;;;;28.17;25.15;;;17.00;99.90;;;;;;5054617;28;20417;-70
2022/09/07 06:29:58;;;;;;;29.02;24.67;;;17.00;99.90;;;;;;5056043;28;20053;-70
2022/09/07 06:32:24;;;;;;;29.02;25.17;;;17.10;99.90;;;;;;5040911;28;20097;-70
2022/09/07 06:34:49;;;;;;;26.42;23.73;;;17.10;99.90;;;;;;5058214;28;20045;-71
2022/09/07 06:37:15;;;;;;;27.65;23.77;;;17.20;99.90;;;;;;5058058;28;20049;-72
2022/09/07 06:39:41;;;;;;;27.13;22.20;;;17.20;99.90;;;;;;5058305;28;20049;-70
2022/09/07 06:42:06;;;;;;;27.17;24.23;;;17.30;99.90;;;;;;5058228;28;20186;-69
2022/09/07 06:44:32;;;;;;;27.08;23.92;;;17.40;99.90;;;;;;5057712;28;20044;-71
2022/09/07 06:46:57;;;;;;;31.00;22.98;;;17.40;99.90;;;;;;5040396;28;20132;-70
2022/09/07 06:49:24;;;;;;;26.35;23.50;;;17.60;99.90;;;;;;5057918;28;20049;-69
2022/09/07 06:51:49;;;;;;;25.73;22.77;;;17.60;99.90;;;;;;5058169;28;20049;-70
2022/09/07 06:54:15;;;;;;;25.50;21.90;;;17.70;99.90;;;;;;5040613;28;20064;-71
2022/09/07 06:56:41;;;;;;;26.17;23.42;;;17.60;99.90;;;;;;5057991;28;20045;-71
2022/09/07 06:59:06;;;;;;;27.45;24.52;;;17.60;99.90;;;;;;5039586;28;20041;-71
2022/09/07 07:01:35;;;;;;;26.02;23.33;;;17.60;99.90;;;;;;5057340;28;20167;-70
2022/09/07 07:04:01;;;;;;;25.30;20.92;;;17.60;99.90;;;;;;5057915;28;20094;-71
2022/09/07 07:06:37;;;;;;;27.48;22.30;;;17.60;99.90;;;;;;5058098;28;20049;-71
2022/09/07 07:09:05;;;;;;;24.70;22.08;;;17.70;99.90;;;;;;5057668;28;20041;-71
2022/09/07 07:11:31;;;;;;;26.27;23.45;;;17.70;99.90;;;;;;5057772;28;20098;-70
2022/09/07 07:13:57;;;;;;;26.75;23.63;;;17.70;99.90;;;;;;5056868;28;20045;-71
2022/09/07 07:16:23;;;;;;;26.88;23.98;;;17.70;99.90;;;;;;5057616;28;20048;-71
2022/09/07 07:18:53;;;;;;;25.65;22.92;;;17.60;99.90;;;;;;5057638;28;20111;-71
2022/09/07 07:21:18;;;;;;;29.35;23.67;;;17.60;99.90;;;;;;5057764;28;20121;-70
2022/09/07 07:23:48;;;;;;;25.70;22.40;;;17.60;99.90;;;;;;5057365;28;20041;-72
2022/09/07 07:26:16;;;;;;;26.02;23.40;;;17.60;99.90;;;;;;5057592;28;20075;-70
2022/09/07 07:28:43;;;;;;;29.65;25.23;;;17.60;99.90;;;;;;5057313;28;20083;-70
2022/09/07 07:31:09;;;;;;;26.65;21.05;;;17.70;99.90;;;;;;5057011;28;20063;-72
2022/09/07 07:36:25;;;;;;;26.15;23.38;;;17.80;99.90;;;;;;5057190;28;20137;-71
2022/09/07 07:38:53;;;;;;;27.23;24.38;;;17.80;99.90;;;;;;5057389;28;20053;-71
2022/09/07 07:41:21;;;;;;;27.98;25.08;;;17.80;99.90;;;;;;5038415;28;20270;-71
2022/09/07 07:43:51;;;;;;;27.20;24.27;;;17.80;99.90;;;;;;5057416;28;20430;-70
2022/09/07 07:46:17;;;;;;;29.15;25.85;;;17.80;99.90;;;;;;5057188;28;20057;-71
2022/09/07 07:48:46;;;;;;;28.40;25.15;;;17.80;99.90;;;;;;5057096;28;20045;-71
2022/09/07 07:51:12;;;;;;;27.33;24.52;;;17.80;99.90;;;;;;5005672;28;20095;-70
2022/09/07 07:53:39;;;;;;;26.63;23.20;;;17.80;99.90;;;;;;5039657;28;20080;-70
2022/09/07 07:56:06;;;;;;;31.63;25.92;;;17.80;99.90;;;;;;5056759;28;20063;-71
2022/09/07 07:58:33;;;;;;;28.73;25.77;;;17.90;99.90;;;;;;5056033;28;20045;-71
2022/09/07 08:01:05;;;;;;;30.67;24.85;;;17.90;99.90;;;;;;5056692;28;20457;-71
2022/09/07 08:03:34;;;;;;;25.95;23.40;;;17.90;99.90;;;;;;5056933;28;20099;-71
2022/09/07 08:06:14;;;;;;;25.88;23.13;;;18.00;99.90;;;;;;5056870;28;20041;-70
2022/09/07 08:08:40;;;;;;;28.58;25.45;;;18.00;99.90;;;;;;5056775;28;20084;-70
2022/09/07 08:11:11;;;;;;;29.70;24.63;;;18.00;99.90;;;;;;5056372;28;20041;-71
2022/09/07 08:13:40;;;;;;;27.20;24.30;;;18.00;99.90;;;;;;5056627;28;20064;-71
2022/09/07 08:16:06;;;;;;;25.90;23.17;;;18.20;99.90;;;;;;5039089;28;20041;-70
2022/09/07 08:18:33;;;;;;;30.60;25.70;;;18.30;99.90;;;;;;5056574;28;20521;-71
2022/09/07 08:21:04;;;;;;;27.73;24.67;;;18.30;99.90;;;;;;5056320;28;20390;-71
2022/09/07 08:23:30;;;;;;;27.05;24.35;;;18.40;99.90;;;;;;5056169;28;20052;-71
2022/09/07 08:25:57;;;;;;;29.77;26.17;;;18.50;99.90;;;;;;5039167;28;20132;-72
2022/09/07 08:28:24;;;;;;;28.80;25.80;;;18.70;99.90;;;;;;5056110;28;20045;-71
2022/09/07 08:30:50;;;;;;;27.42;24.15;;;18.80;99.90;;;;;;5056038;28;20041;-72
2022/09/07 08:33:16;;;;;;;33.50;24.73;;;18.90;99.90;;;;;;5056148;28;20468;-72
2022/09/07 08:35:52;;;;;;;28.55;24.50;;;19.10;99.90;;;;;;5055536;28;20040;-71
2022/09/07 08:38:17;;;;;;;26.33;23.60;;;19.20;99.90;;;;;;5055554;28;20485;-70
2022/09/07 08:40:43;;;;;;;26.00;23.48;;;19.20;99.90;;;;;;5056263;28;20053;-71
2022/09/07 08:43:23;;;;;;;26.77;23.98;;;19.30;99.90;;;;;;5038567;28;20436;-72
2022/09/07 08:45:54;;;;;;;31.95;24.92;;;19.40;99.90;;;;;;5055844;28;20135;-70
2022/09/07 08:48:27;;;;;;;25.15;22.50;;;19.40;99.90;;;;;;5038083;28;20145;-71
2022/09/07 08:51:08;;;;;;;39.45;24.10;;;19.50;99.90;;;;;;5055826;28;20052;-71
2022/09/07 08:53:45;;;;;;;36.50;24.10;;;19.40;99.90;;;;;;5055297;28;20049;-71
2022/09/07 08:56:30;;;;;;;35.22;24.25;;;19.40;99.90;;;;;;5055844;28;20040;-72
2022/09/07 08:58:57;;;;;;;30.70;22.50;;;19.50;99.90;;;;;;5055474;28;20045;-72
2022/09/07 09:01:35;;;;;;;28.45;20.45;;;19.60;99.90;;;;;;5055790;28;20481;-72
2022/09/07 09:04:01;;;;;;;26.02;22.77;;;19.70;99.90;;;;;;5055543;28;20088;-71
2022/09/07 09:06:38;;;;;;;25.42;22.75;;;19.60;99.90;;;;;;5055914;28;20072;-72
2022/09/07 09:09:20;;;;;;;24.55;21.77;;;19.70;99.90;;;;;;5054833;28;20053;-72
2022/09/07 09:11:45;;;;;;;24.35;21.65;;;19.70;99.90;;;;;;5055290;28;20041;-70
2022/09/07 09:14:20;;;;;;;23.50;20.42;;;19.80;99.90;;;;;;5037972;28;20056;-71
2022/09/07 09:16:51;;;;;;;26.02;22.40;;;19.90;99.90;;;;;;5055512;28;20037;-70
2022/09/07 09:19:41;;;;;;;23.80;20.73;;;20.10;99.90;;;;;;5055437;28;20381;-71
2022/09/07 09:22:17;;;;;;;25.45;18.95;;;20.30;99.90;;;;;;5055127;28;20049;-71
2022/09/07 09:24:59;;;;;;;22.58;20.27;;;20.50;99.90;;;;;;5054944;28;20072;-71
2022/09/07 09:27:24;;;;;;;22.77;19.73;;;20.80;99.90;;;;;;5055501;28;20389;-71
2022/09/07 09:29:50;;;;;;;23.58;20.00;;;21.30;99.90;;;;;;5055340;28;20052;-71
2022/09/07 09:32:37;;;;;;;19.05;17.10;;;21.30;99.90;;;;;;5055188;28;20381;-72
2022/09/07 09:35:36;;;;;;;19.83;16.42;;;21.40;99.90;;;;;;5055053;28;20048;-71
2022/09/07 09:38:02;;;;;;;19.23;17.23;;;21.40;99.90;;;;;;5047653;28;20055;-71
2022/09/07 09:40:35;;;;;;;18.52;16.50;;;21.50;99.90;;;;;;5054990;28;20057;-71
2022/09/07 09:43:04;;;;;;;20.20;16.67;;;21.60;99.90;;;;;;5054925;28;20037;-71
2022/09/07 09:45:52;;;;;;;15.65;13.95;;;21.60;99.90;;;;;;5053984;28;20461;-72
2022/09/07 09:48:25;;;;;;;18.17;15.45;;;21.80;99.90;;;;;;5037362;28;20044;-70
2022/09/07 09:50:54;;;;;;;14.63;11.73;;;22.00;99.90;;;;;;5054820;28;20052;-72
2022/09/07 09:53:29;;;;;;;13.10;11.75;;;22.30;99.90;;;;;;5054113;28;20426;-71
2022/09/07 09:55:55;;;;;;;12.07;9.68;;;22.50;99.90;;;;;;5055009;28;20045;-70
2022/09/07 09:58:30;;;;;;;9.98;8.95;;;22.70;99.90;;;;;;5055333;28;20037;-71
2022/09/07 10:01:04;;;;;;;11.45;9.07;;;22.90;99.90;;;;;;5054913;28;20041;-71
2022/09/07 10:03:33;;;;;;;12.93;9.00;;;23.20;99.90;;;;;;5054918;28;20392;-72
2022/09/07 10:06:02;;;;;;;10.30;8.02;;;23.50;99.90;;;;;;5043850;28;20151;-72
2022/09/07 10:08:30;;;;;;;10.13;8.52;;;23.60;99.90;;;;;;5061411;28;20037;-71
2022/09/07 10:11:11;;;;;;;15.48;8.93;;;23.50;99.90;;;;;;5061444;28;20041;-72
2022/09/07 10:13:45;;;;;;;14.25;8.90;;;23.40;99.90;;;;;;5061552;28;20342;-72
2022/09/07 10:16:11;;;;;;;11.07;8.52;;;23.20;99.90;;;;;;5061020;28;20053;-72
2022/09/07 10:18:39;;;;;;;12.48;8.20;;;23.00;99.90;;;;;;5061528;28;20048;-71
2022/09/07 10:21:22;;;;;;;10.20;7.97;;;22.90;99.90;;;;;;5060983;28;20037;-72
2022/09/07 10:23:53;;;;;;;10.40;8.70;;;22.90;99.90;;;;;;5060765;28;20056;-71
2022/09/07 10:26:29;;;;;;;9.02;8.07;;;22.90;99.90;;;;;;5061298;28;20408;-71
2022/09/07 10:29:30;;;;;;;9.40;6.72;;;22.90;99.90;;;;;;5061102;28;20059;-71
2022/09/07 10:32:18;;;;;;;9.15;6.72;;;23.00;99.90;;;;;;5029082;28;20103;-71
2022/09/07 10:34:56;;;;;;;8.98;6.95;;;23.00;99.90;;;;;;5060954;28;20044;-71
2022/09/07 10:37:45;;;;;;;7.60;6.28;;;23.20;99.90;;;;;;5061001;28;20463;-70
2022/09/07 10:40:32;;;;;;;8.45;6.60;;;23.30;99.90;;;;;;5061000;28;20044;-71
2022/09/07 10:43:23;;;;;;;8.88;6.15;;;23.30;99.90;;;;;;5061161;28;20059;-72
2022/09/07 10:45:57;;;;;;;8.20;5.93;;;23.50;99.90;;;;;;5061275;28;20062;-72
2022/09/07 10:48:34;;;;;;;7.68;5.25;;;23.70;99.90;;;;;;5061027;28;20045;-71
2022/09/07 10:51:07;;;;;;;7.07;5.45;;;24.00;99.90;;;;;;5043392;28;20071;-71
2022/09/07 10:53:33;;;;;;;6.47;4.65;;;24.30;99.90;;;;;;5026561;28;20045;-72
2022/09/07 10:56:18;;;;;;;6.80;4.65;;;24.50;99.90;;;;;;5061031;28;20345;-72
2022/09/07 10:58:55;;;;;;;6.70;4.78;;;24.50;99.90;;;;;;5043476;28;20106;-70
2022/09/07 11:01:56;;;;;;;5.90;4.00;;;24.50;99.90;;;;;;5061027;28;20467;-70
2022/09/07 11:04:37;;;;;;;8.25;4.32;;;24.40;99.90;;;;;;5060866;28;20041;-71
2022/09/07 11:07:24;;;;;;;6.32;4.75;;;24.10;99.90;;;;;;5061250;28;20044;-71
2022/09/07 11:10:20;;;;;;;6.07;4.90;;;24.00;99.90;;;;;;5060481;28;20044;-71
2022/09/07 11:12:49;;;;;;;9.30;5.00;;;23.80;99.90;;;;;;5024056;28;20064;-72
2022/09/07 11:15:22;;;;;;;5.68;3.78;;;23.70;99.90;;;;;;5060264;28;20041;-71
2022/09/07 11:17:58;;;;;;;7.53;4.40;;;23.80;99.90;;;;;;5057755;28;20059;-72
2022/09/07 11:20:26;;;;;;;6.47;5.05;;;24.00;99.90;;;;;;5056985;28;20428;-72
2022/09/07 11:23:12;;;;;;;7.00;4.57;;;24.00;99.90;;;;;;5057475;28;20475;-71
2022/09/07 11:26:10;;;;;;;5.10;4.35;;;24.10;99.90;;;;;;5057408;28;20112;-71
2022/09/07 11:28:50;;;;;;;4.70;4.10;;;24.10;99.90;;;;;;5057473;28;20074;-72
2022/09/07 11:31:31;;;;;;;6.18;4.07;;;24.20;99.90;;;;;;5039976;28;20123;-72
2022/09/07 11:34:04;;;;;;;5.57;3.17;;;24.40;99.90;;;;;;5057439;28;20045;-72
2022/09/07 11:36:55;;;;;;;5.40;3.45;;;24.60;99.90;;;;;;5057115;28;20041;-71
2022/09/07 11:39:28;;;;;;;4.68;3.05;;;24.80;99.90;;;;;;5057375;28;20064;-71
2022/09/07 11:42:01;;;;;;;4.75;3.47;;;24.90;99.90;;;;;;5056800;28;20053;-71
2022/09/07 11:44:50;;;;;;;5.30;3.15;;;25.10;99.90;;;;;;5057084;28;20037;-71
2022/09/07 11:47:40;;;;;;;9.02;3.38;;;25.20;99.90;;;;;;5057105;28;20052;-73
2022/09/07 11:50:17;;;;;;;4.57;3.67;;;25.40;99.90;;;;;;5057315;28;20187;-72
2022/09/07 11:52:52;;;;;;;7.22;3.40;;;25.50;99.90;;;;;;5056906;28;20060;-72
2022/09/07 11:55:24;;;;;;;7.32;3.70;;;25.60;99.90;;;;;;5056686;28;20044;-72
2022/09/07 11:58:13;;;;;;;4.68;2.90;;;25.60;99.90;;;;;;5056698;28;20101;-72
2022/09/07 12:01:07;;;;;;;5.97;3.00;;;25.60;99.90;;;;;;5056937;28;20048;-71
2022/09/07 12:03:35;;;;;;;5.00;2.72;;;25.70;99.90;;;;;;5056897;28;20099;-71
2022/09/07 12:06:22;;;;;;;5.10;2.13;;;25.60;99.90;;;;;;5056658;28;20492;-71
2022/09/07 12:09:08;;;;;;;4.00;2.35;;;25.90;99.90;;;;;;5056725;28;20056;-71
2022/09/07 12:11:58;;;;;;;4.13;2.30;;;26.10;99.90;;;;;;5056302;28;20049;-71
2022/09/07 12:14:45;;;;;;;3.30;1.98;;;26.10;99.90;;;;;;5056029;28;20124;-73
2022/09/07 12:17:48;;;;;;;4.72;2.10;;;26.10;99.90;;;;;;5056693;28;20059;-72
2022/09/07 12:20:16;;;;;;;4.78;2.20;;;26.00;99.90;;;;;;5056428;28;20041;-73
2022/09/07 12:23:03;;;;;;;3.30;1.75;;;26.10;99.90;;;;;;5056509;28;20056;-71
2022/09/07 12:25:29;;;;;;;3.08;2.08;;;26.30;99.90;;;;;;5056679;28;20041;-72
2022/09/07 12:27:56;;;;;;;4.43;2.42;;;26.40;99.90;;;;;;5056033;28;20341;-72
2022/09/07 12:30:22;;;;;;;4.40;1.95;;;26.40;99.90;;;;;;5055625;28;20056;-72
2022/09/07 12:32:52;;;;;;;3.72;1.75;;;26.50;99.90;;;;;;5038580;28;20063;-72
2022/09/07 12:35:29;;;;;;;5.72;1.88;;;26.50;99.90;;;;;;5055809;28;20128;-72
2022/09/07 12:38:04;;;;;;;4.53;1.60;;;26.50;99.90;;;;;;5055315;28;20060;-69
2022/09/07 12:40:31;;;;;;;3.72;2.00;;;26.50;99.90;;;;;;5055979;28;20048;-71
2022/09/07 12:43:12;;;;;;;2.70;1.80;;;26.40;99.90;;;;;;5055616;28;20121;-70
2022/09/07 12:45:38;;;;;;;4.35;2.08;;;26.40;99.70;;;;;;5055759;28;20120;-69
2022/09/07 12:48:11;;;;;;;4.15;2.10;;;26.30;99.90;;;;;;5055501;28;20124;-70
2022/09/07 12:50:54;;;;;;;4.50;1.75;;;26.30;99.90;;;;;;5056139;28;20045;-70
2022/09/07 12:54:00;;;;;;;3.08;1.58;;;26.10;99.90;;;;;;5055701;28;20041;-69
2022/09/07 12:56:48;;;;;;;3.25;1.80;;;26.20;99.90;;;;;;5033986;28;20053;-69
2022/09/07 12:59:25;;;;;;;3.45;1.52;;;26.20;99.70;;;;;;5055210;28;20049;-70
2022/09/07 13:02:06;;;;;;;2.55;1.63;;;26.20;99.90;;;;;;5055732;28;20111;-70
2022/09/07 13:05:09;;;;;;;2.60;1.27;;;26.10;99.10;;;;;;5056002;28;20041;-70